createdAt,value
2022-10-19T00:00:52.778Z,5.15
2022-10-19T00:01:54.757Z,4.38
2022-10-19T00:02:59.072Z,4.90
2022-10-19T00:04:03.521Z,4.38
2022-10-19T00:05:09.866Z,4.63
2022-10-19T00:06:14.851Z,4.57
2022-10-19T00:07:17.745Z,4.18
2022-10-19T00:08:19.681Z,5.13
2022-10-19T00:09:22.626Z,4.53
2022-10-19T00:10:24.535Z,4.88
2022-10-19T00:11:28.173Z,4.72
2022-10-19T00:12:30.190Z,4.30
2022-10-19T00:13:33.100Z,5.03
2022-10-19T00:14:35.063Z,4.60
2022-10-19T00:15:40.973Z,5.60
2022-10-19T00:16:44.078Z,3.90
2022-10-19T00:17:46.957Z,5.07
2022-10-19T00:18:50.212Z,4.85
2022-10-19T00:19:53.115Z,6.03
2022-10-19T00:21:03.265Z,5.35
2022-10-19T00:22:08.054Z,4.97
2022-10-19T00:23:12.315Z,4.18
2022-10-19T00:24:15.437Z,4.10
2022-10-19T00:25:17.452Z,3.72
2022-10-19T00:26:20.488Z,4.70
2022-10-19T00:27:22.382Z,4.32
2022-10-19T00:28:25.470Z,4.05
2022-10-19T00:29:27.440Z,3.80
2022-10-19T00:30:30.357Z,4.40
2022-10-19T00:31:32.326Z,4.20
2022-10-19T00:32:35.452Z,3.63
2022-10-19T00:33:38.046Z,4.25
2022-10-19T00:34:42.426Z,4.55
2022-10-19T00:35:44.494Z,4.65
2022-10-19T00:36:47.542Z,4.03
2022-10-19T00:37:49.520Z,4.03
2022-10-19T00:38:53.290Z,5.05
2022-10-19T00:39:55.215Z,4.82
2022-10-19T00:40:58.121Z,4.78
2022-10-19T00:42:00.111Z,5.15
2022-10-19T00:43:03.080Z,5.38
2022-10-19T00:44:07.349Z,5.10
2022-10-19T00:45:15.823Z,4.97
2022-10-19T00:46:17.769Z,4.53
2022-10-19T00:47:25.194Z,5.15
2022-10-19T00:48:32.343Z,5.55
2022-10-19T00:49:38.455Z,5.63
2022-10-19T00:50:43.247Z,4.78
2022-10-19T00:51:53.494Z,5.72
2022-10-19T00:52:56.658Z,4.80
2022-10-19T00:53:59.012Z,5.68
2022-10-19T00:55:03.336Z,6.10
2022-10-19T00:56:11.630Z,5.97
2022-10-19T00:57:15.124Z,5.72
2022-10-19T00:58:17.087Z,5.55
2022-10-19T00:59:21.881Z,5.95
2022-10-19T01:00:23.883Z,5.38
2022-10-19T01:01:28.528Z,5.60
2022-10-19T01:02:30.768Z,4.68
2022-10-19T01:03:34.350Z,5.68
2022-10-19T01:04:38.645Z,5.00
2022-10-19T01:05:43.465Z,4.60
2022-10-19T01:06:45.556Z,4.85
2022-10-19T01:07:48.706Z,4.85
2022-10-19T01:08:50.650Z,5.15
2022-10-19T01:09:54.124Z,5.03
2022-10-19T01:11:11.489Z,4.93
2022-10-19T01:12:31.641Z,4.35
2022-10-19T01:13:46.428Z,4.47
2022-10-19T01:15:03.678Z,4.90
2022-10-19T01:16:14.245Z,4.78
2022-10-19T01:17:24.317Z,3.95
2022-10-19T01:18:40.703Z,4.50
2022-10-19T01:20:07.335Z,4.85
2022-10-19T01:21:21.808Z,4.68
2022-10-19T01:22:39.009Z,4.75
2022-10-19T01:24:17.906Z,5.22
2022-10-19T01:25:23.529Z,4.65
2022-10-19T01:26:44.401Z,4.70
2022-10-19T01:28:00.384Z,5.07
2022-10-19T01:29:12.754Z,5.80
2022-10-19T01:30:26.849Z,5.88
2022-10-19T01:31:39.061Z,5.90
2022-10-19T01:33:23.424Z,6.10
2022-10-19T01:34:29.404Z,6.53
2022-10-19T01:35:40.234Z,6.63
2022-10-19T01:36:48.567Z,6.15
2022-10-19T01:37:58.972Z,6.78
2022-10-19T01:39:09.050Z,5.95
2022-10-19T01:40:15.221Z,4.80
2022-10-19T01:41:22.076Z,3.85
2022-10-19T01:42:29.595Z,4.70
2022-10-19T01:43:40.990Z,4.90
2022-10-19T01:44:47.234Z,4.85
2022-10-19T01:45:55.135Z,4.65
2022-10-19T01:47:03.108Z,5.22
2022-10-19T01:48:11.893Z,4.25
2022-10-19T01:49:19.205Z,3.75
2022-10-19T01:50:28.366Z,5.85
2022-10-19T01:51:35.820Z,4.13
2022-10-19T01:52:39.692Z,4.25
2022-10-19T01:53:47.165Z,5.20
2022-10-19T01:54:56.453Z,6.05
2022-10-19T01:56:01.939Z,6.30
2022-10-19T01:57:07.632Z,6.03
2022-10-19T01:58:15.389Z,5.55
2022-10-19T01:59:20.658Z,6.15
2022-10-19T02:00:24.864Z,6.40
2022-10-19T02:01:33.196Z,6.50
2022-10-19T02:02:39.186Z,7.00
2022-10-19T02:03:41.629Z,6.85
2022-10-19T02:04:45.023Z,6.70
2022-10-19T02:05:48.518Z,5.82
2022-10-19T02:06:52.838Z,4.75
2022-10-19T02:07:59.222Z,4.10
2022-10-19T02:09:02.157Z,5.93
2022-10-19T02:10:04.721Z,7.32
2022-10-19T02:11:07.923Z,6.40
2022-10-19T02:12:11.174Z,7.35
2022-10-19T02:13:15.884Z,6.82
2022-10-19T02:14:22.466Z,6.88
2022-10-19T02:15:27.952Z,7.63
2022-10-19T02:16:34.729Z,7.38
2022-10-19T02:17:43.412Z,5.38
2022-10-19T02:18:49.056Z,7.00
2022-10-19T02:19:53.513Z,6.22
2022-10-19T02:20:55.660Z,5.00
2022-10-19T02:21:59.494Z,7.60
2022-10-19T02:23:03.752Z,7.90
2022-10-19T02:24:06.963Z,7.60
2022-10-19T02:25:09.828Z,6.00
2022-10-19T02:26:12.802Z,6.70
2022-10-19T02:27:14.874Z,7.18
2022-10-19T02:28:17.832Z,6.50
2022-10-19T02:29:20.145Z,7.75
2022-10-19T02:30:23.122Z,6.45
2022-10-19T02:31:25.794Z,7.15
2022-10-19T02:32:30.107Z,6.95
2022-10-19T02:33:32.578Z,7.60
2022-10-19T02:34:37.346Z,8.10
2022-10-19T02:35:39.541Z,7.63
2022-10-19T02:36:42.863Z,7.35
2022-10-19T02:37:45.178Z,8.13
2022-10-19T02:38:48.206Z,8.18
2022-10-19T02:39:50.164Z,9.10
2022-10-19T02:41:03.241Z,7.13
2022-10-19T02:42:11.559Z,6.63
2022-10-19T02:43:19.190Z,8.93
2022-10-19T02:44:26.010Z,7.35
2022-10-19T02:45:30.666Z,6.07
2022-10-19T02:47:48.669Z,5.32
2022-10-19T02:48:52.882Z,7.82
2022-10-19T02:49:54.871Z,6.53
2022-10-19T02:50:57.783Z,7.53
2022-10-19T02:52:01.613Z,8.05
2022-10-19T02:53:04.744Z,8.43
2022-10-19T02:54:08.393Z,8.02
2022-10-19T02:55:11.702Z,6.28
2022-10-19T02:56:13.604Z,7.80
2022-10-19T02:57:18.743Z,7.70
2022-10-19T02:58:20.680Z,5.05
2022-10-19T02:59:23.645Z,5.60
2022-10-19T03:00:25.616Z,6.70
2022-10-19T03:01:28.527Z,5.15
2022-10-19T03:02:30.515Z,7.55
2022-10-19T03:03:34.796Z,6.22
2022-10-19T03:04:36.821Z,7.80
2022-10-19T03:05:39.884Z,6.32
2022-10-19T03:06:42.067Z,7.57
2022-10-19T03:07:44.989Z,7.53
2022-10-19T03:08:47.077Z,8.10
2022-10-19T03:09:50.231Z,7.60
2022-10-19T03:10:52.131Z,6.18
2022-10-19T03:11:56.837Z,6.65
2022-10-19T03:12:58.861Z,7.15
2022-10-19T03:14:01.766Z,7.00
2022-10-19T03:15:05.130Z,5.30
2022-10-19T03:16:09.190Z,7.13
2022-10-19T03:17:11.518Z,6.57
2022-10-19T03:18:14.437Z,6.53
2022-10-19T03:19:17.745Z,6.35
2022-10-19T03:20:20.736Z,5.85
2022-10-19T03:21:22.820Z,6.00
2022-10-19T03:22:25.778Z,5.70
2022-10-19T03:23:27.709Z,7.15
2022-10-19T03:24:31.342Z,5.82
2022-10-19T03:25:33.337Z,5.88
2022-10-19T03:26:36.242Z,7.35
2022-10-19T03:27:38.206Z,6.18
2022-10-19T03:28:41.225Z,6.65
2022-10-19T03:29:43.137Z,7.35
2022-10-19T03:30:46.021Z,7.20
2022-10-19T03:31:48.008Z,6.00
2022-10-19T03:32:51.690Z,7.47
2022-10-19T03:33:53.808Z,6.55
2022-10-19T03:34:58.359Z,6.63
2022-10-19T03:36:23.562Z,6.22
2022-10-19T03:37:25.481Z,7.72
2022-10-19T03:38:28.369Z,6.72
2022-10-19T03:39:30.457Z,6.80
2022-10-19T03:40:33.401Z,6.85
2022-10-19T03:41:36.874Z,7.22
2022-10-19T03:42:39.798Z,5.90
2022-10-19T03:43:41.749Z,5.93
2022-10-19T03:44:44.668Z,6.60
2022-10-19T03:45:46.650Z,5.78
2022-10-19T03:46:49.586Z,6.13
2022-10-19T03:47:51.866Z,6.40
2022-10-19T03:48:55.353Z,6.18
2022-10-19T03:49:59.585Z,7.07
2022-10-19T03:51:02.662Z,6.55
2022-10-19T03:52:05.930Z,7.32
2022-10-19T03:53:07.832Z,6.00
2022-10-19T03:54:14.768Z,6.60
2022-10-19T03:55:17.489Z,7.65
2022-10-19T03:56:23.075Z,7.28
2022-10-19T03:57:26.117Z,6.32
2022-10-19T03:58:28.030Z,7.00
2022-10-19T03:59:31.056Z,6.15
2022-10-19T04:00:33.011Z,6.75
2022-10-19T04:01:38.372Z,6.68
2022-10-19T04:02:40.421Z,6.22
2022-10-19T04:03:43.641Z,5.82
2022-10-19T04:04:45.568Z,6.57
2022-10-19T04:05:49.863Z,7.50
2022-10-19T04:06:53.776Z,6.32
2022-10-19T04:07:56.689Z,6.35
2022-10-19T04:08:59.644Z,6.80
2022-10-19T04:10:02.568Z,7.70
2022-10-19T04:11:06.424Z,6.85
2022-10-19T04:12:09.337Z,7.20
2022-10-19T04:13:11.340Z,6.85
2022-10-19T04:14:23.032Z,6.30
2022-10-19T04:15:34.830Z,6.18
2022-10-19T04:16:37.833Z,7.10
2022-10-19T04:17:41.165Z,6.45
2022-10-19T04:18:44.112Z,6.82
2022-10-19T04:19:46.057Z,7.68
2022-10-19T04:20:50.494Z,7.57
2022-10-19T04:21:53.534Z,6.35
2022-10-19T04:22:55.444Z,6.95
2022-10-19T04:24:01.117Z,6.32
2022-10-19T04:25:03.086Z,6.15
2022-10-19T04:26:08.061Z,6.20
2022-10-19T04:27:09.998Z,6.60
2022-10-19T04:28:12.900Z,6.13
2022-10-19T04:29:15.334Z,6.13
2022-10-19T04:30:18.422Z,6.38
2022-10-19T04:31:20.345Z,6.65
2022-10-19T04:32:23.268Z,6.10
2022-10-19T04:33:25.188Z,6.75
2022-10-19T04:34:28.429Z,6.57
2022-10-19T04:35:30.361Z,5.85
2022-10-19T04:36:35.298Z,5.47
2022-10-19T04:37:37.219Z,6.72
2022-10-19T04:38:40.421Z,7.93
2022-10-19T04:39:43.426Z,6.25
2022-10-19T04:40:46.337Z,7.20
2022-10-19T04:41:49.226Z,6.97
2022-10-19T04:42:51.182Z,5.63
2022-10-19T04:43:57.468Z,6.75
2022-10-19T04:45:00.793Z,6.10
2022-10-19T04:46:04.492Z,6.10
2022-10-19T04:47:07.393Z,6.18
2022-10-19T04:48:09.306Z,5.97
2022-10-19T04:49:15.145Z,5.95
2022-10-19T04:50:19.888Z,5.97
2022-10-19T04:51:23.812Z,6.28
2022-10-19T04:52:28.085Z,6.32
2022-10-19T04:53:30.863Z,5.50
2022-10-19T04:54:33.811Z,6.53
2022-10-19T04:55:40.834Z,5.68
2022-10-19T04:56:43.712Z,5.75
2022-10-19T04:57:45.630Z,5.32
2022-10-19T04:58:49.126Z,6.63
2022-10-19T04:59:51.033Z,6.22
2022-10-19T05:00:54.110Z,6.65
2022-10-19T05:01:57.122Z,5.63
2022-10-19T05:02:59.032Z,5.25
2022-10-19T05:04:03.329Z,5.80
2022-10-19T05:05:06.426Z,6.28
2022-10-19T05:06:10.127Z,5.75
2022-10-19T05:07:12.041Z,5.97
2022-10-19T05:08:16.313Z,6.45
2022-10-19T05:09:18.247Z,6.22
2022-10-19T05:10:21.357Z,6.13
2022-10-19T05:11:24.774Z,5.88
2022-10-19T05:12:26.737Z,6.07
2022-10-19T05:13:29.751Z,5.65
2022-10-19T05:14:36.722Z,5.13
2022-10-19T05:15:41.040Z,5.80
2022-10-19T05:16:44.010Z,5.95
2022-10-19T05:17:45.942Z,5.88
2022-10-19T05:18:50.190Z,5.68
2022-10-19T05:19:52.088Z,6.22
2022-10-19T05:21:02.476Z,5.97
2022-10-19T05:22:04.475Z,5.50
2022-10-19T05:23:29.217Z,6.80
2022-10-19T05:24:32.521Z,6.40
2022-10-19T05:25:34.444Z,5.90
2022-10-19T05:26:37.362Z,5.93
2022-10-19T05:27:39.506Z,5.70
2022-10-19T05:28:42.504Z,6.22
2022-10-19T05:29:44.494Z,5.25
2022-10-19T05:30:49.006Z,4.85
2022-10-19T05:31:52.054Z,6.18
2022-10-19T05:32:53.996Z,5.38
2022-10-19T05:33:57.452Z,5.53
2022-10-19T05:34:59.426Z,6.40
2022-10-19T05:36:11.719Z,5.78
2022-10-19T05:37:13.684Z,5.55
2022-10-19T05:38:16.576Z,6.55
2022-10-19T05:39:20.829Z,6.05
2022-10-19T05:40:22.815Z,6.60
2022-10-19T05:41:27.049Z,5.93
2022-10-19T05:42:30.030Z,5.68
2022-10-19T05:43:31.948Z,5.38
2022-10-19T05:44:35.912Z,5.43
2022-10-19T05:45:37.874Z,7.88
2022-10-19T05:46:40.823Z,6.63
2022-10-19T05:47:42.758Z,5.68
2022-10-19T05:48:46.164Z,6.60
2022-10-19T05:49:48.097Z,6.60
2022-10-19T05:50:54.578Z,6.82
2022-10-19T05:51:57.558Z,6.57
2022-10-19T05:52:59.491Z,6.63
2022-10-19T05:54:02.450Z,6.80
2022-10-19T05:55:07.086Z,6.95
2022-10-19T05:56:13.824Z,6.35
2022-10-19T05:57:17.019Z,6.63
2022-10-19T05:58:18.921Z,6.75
2022-10-19T05:59:22.605Z,6.57
2022-10-19T06:00:24.537Z,6.30
2022-10-19T06:01:28.381Z,6.38
2022-10-19T06:02:31.125Z,7.00
2022-10-19T06:03:34.036Z,6.07
2022-10-19T06:04:36.947Z,6.90
2022-10-19T06:05:38.852Z,6.18
2022-10-19T06:06:42.805Z,7.30
2022-10-19T06:07:44.762Z,5.93
2022-10-19T06:08:49.426Z,6.80
2022-10-19T06:09:51.474Z,6.75
2022-10-19T06:11:06.454Z,6.97
2022-10-19T06:12:09.354Z,6.38
2022-10-19T06:13:12.302Z,6.20
2022-10-19T06:14:16.810Z,6.30
2022-10-19T06:15:18.710Z,6.78
2022-10-19T06:16:22.898Z,6.30
2022-10-19T06:17:25.813Z,6.43
2022-10-19T06:18:27.915Z,6.57
2022-10-19T06:19:30.801Z,6.03
2022-10-19T06:20:34.703Z,6.50
2022-10-19T06:21:39.613Z,6.38
2022-10-19T06:22:43.954Z,5.15
2022-10-19T06:23:50.523Z,5.90
2022-10-19T06:24:53.438Z,6.70
2022-10-19T06:25:56.805Z,5.65
2022-10-19T06:26:59.733Z,6.90
2022-10-19T06:28:02.425Z,6.30
2022-10-19T06:29:06.563Z,5.57
2022-10-19T06:30:09.506Z,6.32
2022-10-19T06:31:13.382Z,6.70
2022-10-19T06:32:16.388Z,6.55
2022-10-19T06:33:18.282Z,5.53
2022-10-19T06:34:21.381Z,6.22
2022-10-19T06:35:23.351Z,6.03
2022-10-19T06:36:28.428Z,6.05
2022-10-19T06:37:30.338Z,6.82
2022-10-19T06:38:33.263Z,5.95
2022-10-19T06:39:35.659Z,6.20
2022-10-19T06:40:38.582Z,6.60
2022-10-19T06:41:42.862Z,4.93
2022-10-19T06:42:44.772Z,5.40
2022-10-19T06:43:51.084Z,5.75
2022-10-19T06:44:54.017Z,5.53
2022-10-19T06:45:56.121Z,5.57
2022-10-19T06:46:59.057Z,6.35
2022-10-19T06:48:03.626Z,6.13
2022-10-19T06:49:13.978Z,5.78
2022-10-19T06:50:15.965Z,6.05
2022-10-19T06:51:18.934Z,5.50
2022-10-19T06:52:20.914Z,5.75
2022-10-19T06:53:23.885Z,5.15
2022-10-19T06:54:27.171Z,6.47
2022-10-19T06:55:29.112Z,6.30
2022-10-19T06:56:32.036Z,5.57
2022-10-19T06:57:35.685Z,6.00
2022-10-19T06:58:39.556Z,5.15
2022-10-19T06:59:42.487Z,5.60
2022-10-19T07:00:44.526Z,5.85
2022-10-19T07:01:47.510Z,4.20
2022-10-19T07:02:49.805Z,4.80
2022-10-19T07:03:53.639Z,4.10
2022-10-19T07:04:55.556Z,4.68
2022-10-19T07:05:59.785Z,5.00
2022-10-19T07:07:02.710Z,3.70
2022-10-19T07:08:04.841Z,4.57
2022-10-19T07:09:07.840Z,3.97
2022-10-19T07:10:09.981Z,4.80
2022-10-19T07:11:16.210Z,5.05
2022-10-19T07:12:18.178Z,4.50
2022-10-19T07:13:22.629Z,4.32
2022-10-19T07:14:28.411Z,4.68
2022-10-19T07:15:30.369Z,4.75
2022-10-19T07:16:33.276Z,4.05
2022-10-19T07:17:35.540Z,4.63
2022-10-19T07:18:39.798Z,5.47
2022-10-19T07:19:42.743Z,4.45
2022-10-19T07:20:54.290Z,4.10
2022-10-19T07:21:57.286Z,3.95
2022-10-19T07:22:59.185Z,4.43
2022-10-19T07:24:02.496Z,3.85
2022-10-19T07:25:05.228Z,5.13
2022-10-19T07:26:12.243Z,4.90
2022-10-19T07:27:15.406Z,4.60
2022-10-19T07:28:17.377Z,3.95
2022-10-19T07:29:21.717Z,4.90
2022-10-19T07:30:25.086Z,5.03
2022-10-19T07:31:28.607Z,4.78
2022-10-19T07:32:31.879Z,4.68
2022-10-19T07:33:33.985Z,5.45
2022-10-19T07:34:37.010Z,4.82
2022-10-19T07:35:39.207Z,4.55
2022-10-19T07:36:45.372Z,4.72
2022-10-19T07:37:47.337Z,5.05
2022-10-19T07:38:50.249Z,4.32
2022-10-19T07:39:53.156Z,3.97
2022-10-19T07:41:00.835Z,4.05
2022-10-19T07:42:03.745Z,3.72
2022-10-19T07:43:05.800Z,4.32
2022-10-19T07:44:09.979Z,3.80
2022-10-19T07:45:15.678Z,4.28
2022-10-19T07:46:20.866Z,3.45
2022-10-19T07:47:23.797Z,4.47
2022-10-19T07:48:25.771Z,3.85
2022-10-19T07:49:29.089Z,3.15
2022-10-19T07:50:31.009Z,3.75
2022-10-19T07:51:35.130Z,4.50
2022-10-19T07:52:37.229Z,4.70
2022-10-19T07:53:41.276Z,4.70
2022-10-19T07:54:44.449Z,4.90
2022-10-19T07:55:46.413Z,4.13
2022-10-19T07:56:49.417Z,4.55
2022-10-19T07:57:51.365Z,4.20
2022-10-19T07:58:55.614Z,4.60
2022-10-19T07:59:58.558Z,5.20
2022-10-19T08:01:03.178Z,5.47
2022-10-19T08:02:07.607Z,5.15
2022-10-19T08:03:43.652Z,4.63
2022-10-19T08:05:55.746Z,5.22
2022-10-19T08:06:58.722Z,4.75
2022-10-19T08:08:01.760Z,4.10
2022-10-19T08:09:05.605Z,5.07
2022-10-19T08:10:09.592Z,3.90
2022-10-19T08:11:13.608Z,5.20
2022-10-19T08:12:16.555Z,4.95
2022-10-19T08:13:19.457Z,5.88
2022-10-19T08:14:22.360Z,6.07
2022-10-19T08:15:26.117Z,6.22
2022-10-19T08:16:32.770Z,5.13
2022-10-19T08:17:37.578Z,5.80
2022-10-19T08:18:39.535Z,6.07
2022-10-19T08:19:43.396Z,5.63
2022-10-19T08:20:45.629Z,6.80
2022-10-19T08:21:48.545Z,6.22
2022-10-19T08:22:56.363Z,5.70
2022-10-19T08:24:01.871Z,5.75
2022-10-19T08:25:04.257Z,5.18
2022-10-19T08:26:07.156Z,5.93
2022-10-19T08:27:10.079Z,6.05
2022-10-19T08:28:11.997Z,6.50
2022-10-19T08:29:16.901Z,6.60
2022-10-19T08:30:19.994Z,5.28
2022-10-19T08:31:24.037Z,6.15
2022-10-19T08:32:28.289Z,5.18
2022-10-19T08:33:31.176Z,6.18
2022-10-19T08:34:34.198Z,6.53
2022-10-19T08:35:36.706Z,5.72
2022-10-19T08:36:39.852Z,6.53
2022-10-19T08:37:46.066Z,7.53
2022-10-19T08:38:48.936Z,7.25
2022-10-19T08:41:32.510Z,6.25
2022-10-19T08:42:47.772Z,3.88
2022-10-19T08:44:00.801Z,5.45
2022-10-19T08:45:38.225Z,6.68
2022-10-19T08:46:51.167Z,6.32
2022-10-19T08:48:23.505Z,6.43
2022-10-19T08:49:28.712Z,6.05
2022-10-19T08:50:38.088Z,6.05
2022-10-19T08:51:44.113Z,5.95
2022-10-19T08:52:49.698Z,5.45
2022-10-19T08:53:56.641Z,6.25
2022-10-19T08:56:50.505Z,6.20
2022-10-19T08:58:01.301Z,5.80
2022-10-19T08:59:12.874Z,6.35
2022-10-19T09:00:22.035Z,6.28
2022-10-19T09:01:37.842Z,6.47
2022-10-19T09:02:55.406Z,6.72
2022-10-19T09:04:04.691Z,6.28
2022-10-19T09:05:16.773Z,5.90
2022-10-19T09:06:24.258Z,6.70
2022-10-19T09:07:30.297Z,5.53
2022-10-19T09:08:34.897Z,5.75
2022-10-19T09:09:43.763Z,5.80
2022-10-19T09:10:49.986Z,5.43
2022-10-19T09:11:58.499Z,5.72
2022-10-19T09:13:03.724Z,7.03
2022-10-19T09:14:13.868Z,5.95
2022-10-19T09:15:19.377Z,6.10
2022-10-19T09:16:22.442Z,6.90
2022-10-19T09:17:26.064Z,6.57
2022-10-19T09:18:30.914Z,5.93
2022-10-19T09:19:34.221Z,6.32
2022-10-19T09:20:42.309Z,6.35
2022-10-19T09:21:49.462Z,6.68
2022-10-19T09:23:03.013Z,5.75
2022-10-19T09:24:07.042Z,6.03
2022-10-19T09:25:14.662Z,6.85
2022-10-19T09:26:18.882Z,6.03
2022-10-19T09:27:24.535Z,6.13
2022-10-19T09:28:42.245Z,6.43
2022-10-19T09:29:49.063Z,6.00
2022-10-19T09:30:55.554Z,6.43
2022-10-19T09:32:00.613Z,6.57
2022-10-19T09:33:04.158Z,5.90
2022-10-19T09:34:13.070Z,6.20
2022-10-19T09:35:29.841Z,6.18
2022-10-19T09:36:50.150Z,5.85
2022-10-19T09:38:00.441Z,6.45
2022-10-19T09:39:04.421Z,5.43
2022-10-19T09:40:15.400Z,5.05
2022-10-19T09:41:21.288Z,4.25
2022-10-19T09:42:29.026Z,5.00
2022-10-19T09:43:36.789Z,5.13
2022-10-19T09:44:40.237Z,4.60
2022-10-19T09:45:49.602Z,4.65
2022-10-19T09:46:58.979Z,4.35
2022-10-19T09:48:12.800Z,4.75
2022-10-19T09:49:16.114Z,4.60
2022-10-19T09:50:19.952Z,4.90
2022-10-19T09:51:24.510Z,5.68
2022-10-19T09:52:36.694Z,4.85
2022-10-19T09:53:50.143Z,4.90
2022-10-19T09:55:02.046Z,5.25
2022-10-19T09:56:07.490Z,5.80
2022-10-19T09:57:20.547Z,5.43
2022-10-19T09:58:30.501Z,4.68
2022-10-19T09:59:37.701Z,5.47
2022-10-19T10:00:42.518Z,4.85
2022-10-19T10:01:45.487Z,5.95
2022-10-19T10:02:52.809Z,5.30
2022-10-19T10:04:06.582Z,5.72
2022-10-19T10:05:15.989Z,5.90
2022-10-19T10:06:18.114Z,5.78
2022-10-19T10:07:25.411Z,6.22
2022-10-19T10:08:32.190Z,6.95
2022-10-19T10:09:41.962Z,6.78
2022-10-19T10:10:47.518Z,6.75
2022-10-19T10:11:51.053Z,6.63
2022-10-19T10:12:54.746Z,7.10
2022-10-19T10:14:00.586Z,6.22
2022-10-19T10:15:07.072Z,7.07
2022-10-19T10:16:15.805Z,7.03
2022-10-19T10:17:21.785Z,6.38
2022-10-19T10:18:26.666Z,6.82
2022-10-19T10:19:31.075Z,6.07
2022-10-19T10:20:33.069Z,7.20
2022-10-19T10:21:47.808Z,7.72
2022-10-19T10:22:58.082Z,6.78
2022-10-19T10:24:03.580Z,7.80
2022-10-19T10:25:14.637Z,7.25
2022-10-19T10:26:20.262Z,7.40
2022-10-19T10:27:31.839Z,6.43
2022-10-19T10:28:34.980Z,7.53
2022-10-19T10:29:40.025Z,6.97
2022-10-19T10:30:45.382Z,7.22
2022-10-19T10:31:50.568Z,7.18
2022-10-19T10:32:56.245Z,6.97
2022-10-19T10:34:11.140Z,7.32
2022-10-19T10:35:31.610Z,6.63
2022-10-19T10:36:35.158Z,6.80
2022-10-19T10:37:41.545Z,7.97
2022-10-19T10:38:50.571Z,6.85
2022-10-19T10:39:56.726Z,8.10
2022-10-19T10:41:07.719Z,7.35
2022-10-19T10:42:17.120Z,7.00
2022-10-19T10:43:23.780Z,7.05
2022-10-19T10:44:30.806Z,7.35
2022-10-19T10:45:37.108Z,7.00
2022-10-19T10:46:52.579Z,6.75
2022-10-19T10:47:55.769Z,7.43
2022-10-19T10:49:00.930Z,6.90
2022-10-19T10:50:07.658Z,7.03
2022-10-19T10:51:21.684Z,7.28
2022-10-19T10:52:25.588Z,6.93
2022-10-19T10:53:38.038Z,7.30
2022-10-19T10:54:58.122Z,6.75
2022-10-19T10:56:00.176Z,6.20
2022-10-19T10:57:14.097Z,5.57
2022-10-19T10:58:35.355Z,5.57
2022-10-19T10:59:45.509Z,7.63
2022-10-19T11:00:49.242Z,6.38
2022-10-19T11:01:59.999Z,5.78
2022-10-19T11:03:12.250Z,5.82
2022-10-19T11:04:20.336Z,5.40
2022-10-19T11:05:26.563Z,6.10
2022-10-19T11:06:28.692Z,5.53
2022-10-19T11:07:34.476Z,5.43
2022-10-19T11:08:45.357Z,5.13
2022-10-19T11:09:53.882Z,6.10
2022-10-19T11:11:00.534Z,6.20
2022-10-19T11:12:05.256Z,5.10
2022-10-19T11:13:15.168Z,4.80
2022-10-19T11:14:28.470Z,5.38
2022-10-19T11:15:36.278Z,5.90
2022-10-19T11:16:43.109Z,5.32
2022-10-19T11:18:00.786Z,5.93
2022-10-19T11:19:12.922Z,5.18
2022-10-19T11:20:16.178Z,4.55
2022-10-19T11:21:24.054Z,5.13
2022-10-19T11:22:29.850Z,5.88
2022-10-19T11:23:45.058Z,4.45
2022-10-19T11:25:03.001Z,4.50
2022-10-19T11:26:19.250Z,4.30
2022-10-19T11:27:34.862Z,4.03
2022-10-19T11:28:50.961Z,5.05
2022-10-19T11:30:05.083Z,3.90
2022-10-19T11:31:17.068Z,4.70
2022-10-19T11:32:27.674Z,4.30
2022-10-19T11:33:44.962Z,4.20
2022-10-19T11:35:00.679Z,4.65
2022-10-19T11:36:06.149Z,4.55
2022-10-19T11:37:23.895Z,3.70
2022-10-19T11:38:39.585Z,4.80
2022-10-19T11:39:51.184Z,4.72
2022-10-19T11:41:23.862Z,4.68
2022-10-19T11:42:41.944Z,4.88
2022-10-19T11:43:52.086Z,5.03
2022-10-19T11:45:06.740Z,4.78
2022-10-19T11:46:17.382Z,5.07
2022-10-19T11:47:51.841Z,4.38
2022-10-19T11:49:26.468Z,4.38
2022-10-19T11:50:46.614Z,4.95
2022-10-19T11:52:02.572Z,4.88
2022-10-19T11:53:14.830Z,4.93
2022-10-19T11:54:28.636Z,4.80
2022-10-19T11:55:40.829Z,4.55
2022-10-19T11:57:11.529Z,5.00
2022-10-19T11:58:38.469Z,4.90
2022-10-19T12:00:00.228Z,4.93
2022-10-19T12:01:22.617Z,5.25
2022-10-19T12:03:02.833Z,4.85
2022-10-19T12:04:40.961Z,4.43
2022-10-19T12:05:55.301Z,5.25
2022-10-19T12:07:04.818Z,4.32
2022-10-19T12:08:21.381Z,4.45
2022-10-19T12:09:34.602Z,4.18
2022-10-19T12:10:45.577Z,4.38
2022-10-19T12:12:08.253Z,5.00
2022-10-19T12:13:14.159Z,4.40
2022-10-19T12:14:20.115Z,4.50
2022-10-19T12:15:29.845Z,4.30
2022-10-19T12:16:46.246Z,3.55
2022-10-19T12:17:52.681Z,4.53
2022-10-19T12:19:00.360Z,5.03
2022-10-19T12:20:06.506Z,4.10
2022-10-19T12:21:12.719Z,4.40
2022-10-19T12:22:19.369Z,4.50
2022-10-19T12:23:29.442Z,3.67
2022-10-19T12:24:34.095Z,4.28
2022-10-19T12:25:39.812Z,3.70
2022-10-19T12:26:43.898Z,4.20
2022-10-19T12:27:50.685Z,4.07
2022-10-19T12:28:56.594Z,4.20
2022-10-19T12:30:04.521Z,4.40
2022-10-19T12:31:08.365Z,4.20
2022-10-19T12:32:13.813Z,4.10
2022-10-19T12:33:20.872Z,4.03
2022-10-19T12:34:32.609Z,4.57
2022-10-19T12:35:54.073Z,5.10
2022-10-19T12:37:01.516Z,4.63
2022-10-19T12:38:14.026Z,4.75
2022-10-19T12:39:21.264Z,3.45
2022-10-19T12:40:29.850Z,3.85
2022-10-19T12:41:39.853Z,5.32
2022-10-19T12:42:53.455Z,4.95
2022-10-19T12:44:14.390Z,5.10
2022-10-19T12:45:27.109Z,4.65
2022-10-19T12:46:38.726Z,4.50
2022-10-19T12:47:41.022Z,4.05
2022-10-19T12:48:43.923Z,4.50
2022-10-19T12:49:49.053Z,5.13
2022-10-19T12:51:04.107Z,4.38
2022-10-19T12:52:08.234Z,4.05
2022-10-19T12:54:37.541Z,3.33
2022-10-19T12:55:41.287Z,3.08
2022-10-19T12:56:51.410Z,3.47
2022-10-19T12:58:20.772Z,3.15
2022-10-19T12:59:26.868Z,4.00
2022-10-19T13:00:32.335Z,3.70
2022-10-19T13:01:44.745Z,3.90
2022-10-19T13:02:48.628Z,3.65
2022-10-19T13:04:06.611Z,4.13
2022-10-19T13:05:20.360Z,4.22
2022-10-19T13:06:34.489Z,4.50
2022-10-19T13:07:36.958Z,4.78
2022-10-19T13:08:44.478Z,3.80
2022-10-19T13:09:49.252Z,4.05
2022-10-19T13:11:06.056Z,4.30
2022-10-19T13:12:44.065Z,4.20
2022-10-19T13:13:58.724Z,3.60
2022-10-19T13:15:01.686Z,4.05
2022-10-19T13:16:45.526Z,3.95
2022-10-19T13:17:49.913Z,3.90
2022-10-19T13:19:20.468Z,3.25
2022-10-19T13:20:54.498Z,3.90
2022-10-19T13:22:25.663Z,4.40
2022-10-19T13:23:39.863Z,3.50
2022-10-19T13:24:43.000Z,4.20
2022-10-19T13:25:45.098Z,3.88
2022-10-19T13:26:48.086Z,4.18
2022-10-19T13:27:52.258Z,3.90
2022-10-19T13:28:56.553Z,4.10
2022-10-19T13:29:59.470Z,3.33
2022-10-19T13:31:08.172Z,3.60
2022-10-19T13:32:36.083Z,3.90
2022-10-19T13:33:50.847Z,4.03
2022-10-19T13:34:53.171Z,4.20
2022-10-19T13:36:08.241Z,3.70
2022-10-19T13:37:14.211Z,3.70
2022-10-19T13:38:27.004Z,3.90
2022-10-19T13:39:31.004Z,3.83
2022-10-19T13:40:33.411Z,3.60
2022-10-19T13:41:51.684Z,3.95
2022-10-19T13:42:59.616Z,3.70
2022-10-19T13:44:06.764Z,3.92
2022-10-19T13:45:22.352Z,4.20
2022-10-19T13:46:43.153Z,4.05
2022-10-19T13:47:47.621Z,4.38
2022-10-19T13:49:27.826Z,4.28
2022-10-19T13:50:41.137Z,4.95
2022-10-19T13:51:57.431Z,4.43
2022-10-19T13:53:22.617Z,4.05
2022-10-19T13:54:39.511Z,4.13
2022-10-19T13:56:20.643Z,4.57
2022-10-19T13:57:33.071Z,4.03
2022-10-19T13:59:16.782Z,4.13
2022-10-19T14:00:21.492Z,4.03
2022-10-19T14:01:33.294Z,5.20
2022-10-19T14:03:05.359Z,4.00
2022-10-19T14:04:22.446Z,4.15
2022-10-19T14:06:01.437Z,3.95
2022-10-19T14:07:11.515Z,3.83
2022-10-19T14:08:30.426Z,3.63
2022-10-19T14:09:56.030Z,3.58
2022-10-19T14:11:01.667Z,3.95
2022-10-19T14:12:09.056Z,3.80
2022-10-19T14:13:15.462Z,3.25
2022-10-19T14:14:20.863Z,3.35
2022-10-19T14:15:28.416Z,3.55
2022-10-19T14:16:30.373Z,3.58
2022-10-19T14:17:34.179Z,3.80
2022-10-19T14:18:37.525Z,3.83
2022-10-19T14:19:44.716Z,3.03
2022-10-19T14:20:57.882Z,4.05
2022-10-19T14:22:02.687Z,3.55
2022-10-19T14:23:19.954Z,3.70
2022-10-19T14:24:32.754Z,3.35
2022-10-19T14:25:34.728Z,3.20
2022-10-19T14:26:37.770Z,3.90
2022-10-19T14:27:39.829Z,3.60
2022-10-19T14:28:43.564Z,3.95
2022-10-19T14:29:48.930Z,3.40
2022-10-19T14:31:00.297Z,3.83
2022-10-19T14:32:10.486Z,3.35
2022-10-19T14:33:17.787Z,4.05
2022-10-19T14:34:21.012Z,3.72
2022-10-19T14:35:27.717Z,4.40
2022-10-19T14:36:36.216Z,3.90
2022-10-19T14:37:39.157Z,3.75
2022-10-19T14:38:43.447Z,3.28
2022-10-19T14:40:03.138Z,3.63
2022-10-19T14:41:07.756Z,4.05
2022-10-19T14:42:10.909Z,3.72
2022-10-19T14:43:21.057Z,4.85
2022-10-19T14:44:37.246Z,4.00
2022-10-19T14:45:41.556Z,4.28
2022-10-19T14:46:48.948Z,4.65
2022-10-19T14:47:56.583Z,4.25
2022-10-19T14:49:04.556Z,4.78
2022-10-19T14:50:11.141Z,5.00
2022-10-19T14:51:29.200Z,4.03
2022-10-19T14:52:38.252Z,3.42
2022-10-19T14:53:43.293Z,4.45
2022-10-19T14:54:49.709Z,4.00
2022-10-19T14:55:55.124Z,4.10
2022-10-19T14:57:02.138Z,4.10
2022-10-19T14:58:11.332Z,4.00
2022-10-19T14:59:25.710Z,3.97